createdAt,value
2022-08-24T00:00:41.240Z,5.82
2022-08-24T00:05:43.262Z,8.80
2022-08-24T00:10:45.833Z,3.45
2022-08-24T00:15:47.947Z,11.57
2022-08-24T00:20:49.957Z,9.38
2022-08-24T00:25:52.234Z,5.55
2022-08-24T00:30:54.347Z,6.05
2022-08-24T00:35:56.426Z,3.97
2022-08-24T00:40:58.262Z,10.48
2022-08-24T00:46:20.792Z,12.95
2022-08-24T00:51:35.173Z,8.80
2022-08-24T00:56:48.913Z,8.45
2022-08-24T01:06:53.809Z,8.00
2022-08-24T01:11:56.644Z,7.13
2022-08-24T01:17:17.005Z,10.07
2022-08-24T01:22:54.430Z,9.90
2022-08-24T01:28:00.333Z,7.40
2022-08-24T01:33:07.529Z,8.32
2022-08-24T01:38:11.677Z,11.35
2022-08-24T01:53:48.468Z,8.15
2022-08-24T01:58:50.578Z,9.02
2022-08-24T02:03:52.735Z,7.18
2022-08-24T02:08:55.931Z,8.98
2022-08-24T02:13:58.516Z,7.80
2022-08-24T02:19:02.209Z,8.73
2022-08-24T02:24:04.813Z,9.48
2022-08-24T02:29:06.551Z,8.38
2022-08-24T02:34:09.145Z,8.23
2022-08-24T02:39:11.654Z,7.60
2022-08-24T02:44:13.378Z,12.75
2022-08-24T02:49:15.874Z,9.75
2022-08-24T02:54:18.815Z,18.63
2022-08-24T02:59:21.348Z,17.40
2022-08-24T03:04:23.469Z,16.42
2022-08-24T03:09:25.215Z,9.93
2022-08-24T03:14:30.774Z,9.38
2022-08-24T03:19:33.788Z,8.85
2022-08-24T03:24:35.771Z,13.52
2022-08-24T03:29:37.974Z,9.63
2022-08-24T03:34:40.144Z,6.18
2022-08-24T03:39:42.006Z,10.70
2022-08-24T03:44:44.256Z,8.50
2022-08-24T03:49:45.955Z,11.00
2022-08-24T03:54:48.798Z,9.00
2022-08-24T03:59:51.298Z,13.82
2022-08-24T04:04:53.517Z,11.68
2022-08-24T04:09:55.260Z,13.45
2022-08-24T04:14:56.995Z,11.98
2022-08-24T04:19:58.883Z,14.32
2022-08-24T04:25:00.763Z,12.13
2022-08-24T04:30:04.149Z,8.90
2022-08-24T04:35:06.581Z,11.75
2022-08-24T04:40:09.645Z,11.77
2022-08-24T04:45:12.408Z,9.52
2022-08-24T04:50:14.643Z,10.70
2022-08-24T04:55:18.042Z,17.92
2022-08-24T05:00:20.520Z,25.58
2022-08-24T05:05:26.807Z,11.80
2022-08-24T05:10:29.341Z,7.97
2022-08-24T05:15:36.441Z,14.65
2022-08-24T05:20:46.338Z,11.20
2022-08-24T05:25:51.249Z,8.90
2022-08-24T05:30:56.671Z,8.63
2022-08-24T05:36:09.469Z,10.35
2022-08-24T05:41:11.767Z,10.35
2022-08-24T05:46:14.437Z,13.18
2022-08-24T05:51:17.646Z,12.15
2022-08-24T05:56:20.470Z,15.65
2022-08-24T06:01:31.715Z,13.00
2022-08-24T06:06:34.338Z,12.25
2022-08-24T06:11:39.491Z,12.10
2022-08-24T06:16:44.681Z,12.70
2022-08-24T06:21:49.641Z,11.40
2022-08-24T06:27:19.511Z,13.13
2022-08-24T06:32:22.237Z,8.65
2022-08-24T06:37:26.747Z,6.38
2022-08-24T06:42:31.945Z,6.53
2022-08-24T06:47:36.796Z,4.63
2022-08-24T06:52:41.966Z,4.97
2022-08-24T06:57:50.410Z,4.15
2022-08-24T07:02:59.579Z,3.92
2022-08-24T07:08:02.683Z,5.72
2022-08-24T07:13:05.062Z,5.45
2022-08-24T07:18:16.150Z,4.57
2022-08-24T07:23:18.966Z,4.72
2022-08-24T07:28:31.828Z,3.35
2022-08-24T07:33:34.910Z,4.50
2022-08-24T07:38:38.094Z,2.13
2022-08-24T07:43:43.147Z,7.43
2022-08-24T07:48:46.402Z,3.90
2022-08-24T07:53:53.874Z,4.50
2022-08-24T07:58:58.007Z,4.18
2022-08-24T08:04:00.065Z,3.50
2022-08-24T08:09:05.550Z,5.40
2022-08-24T08:14:08.473Z,3.20
2022-08-24T08:19:15.112Z,2.75
2022-08-24T08:24:20.702Z,3.90
2022-08-24T08:29:25.327Z,3.13
2022-08-24T08:34:28.061Z,5.13
2022-08-24T08:39:33.688Z,5.80
2022-08-24T08:45:08.002Z,3.70
2022-08-24T08:50:36.900Z,5.40
2022-08-24T08:56:03.800Z,1.73
2022-08-24T09:01:46.640Z,2.65
2022-08-24T09:07:19.358Z,1.98
2022-08-24T09:12:58.010Z,4.70
2022-08-24T09:18:17.229Z,3.75
2022-08-24T09:29:26.158Z,4.85
2022-08-24T09:34:49.218Z,2.88
2022-08-24T09:40:02.996Z,1.95
2022-08-24T09:45:53.971Z,7.00
2022-08-24T09:51:20.347Z,2.45
2022-08-24T09:56:53.819Z,3.53
2022-08-24T10:02:24.186Z,2.97
2022-08-24T10:08:14.180Z,2.85
2022-08-24T10:13:47.735Z,3.80
2022-08-24T10:19:13.668Z,4.60
2022-08-24T10:43:38.021Z,3.35
2022-08-24T10:49:27.913Z,1.75
2022-08-24T10:54:44.624Z,4.40
2022-08-24T11:00:48.992Z,1.98
2022-08-24T11:17:19.173Z,2.15
2022-08-24T11:22:41.657Z,2.15
2022-08-24T11:27:48.245Z,1.80
2022-08-24T11:32:56.554Z,1.55
2022-08-24T11:38:45.827Z,1.88
2022-08-24T11:44:30.542Z,2.88
2022-08-24T11:49:45.181Z,6.72
2022-08-24T11:55:06.273Z,14.52
2022-08-24T12:00:12.165Z,3.30
2022-08-24T12:05:16.932Z,3.10
2022-08-24T12:10:37.598Z,4.40
2022-08-24T12:15:48.688Z,2.80
2022-08-24T12:20:53.800Z,2.97
2022-08-24T12:26:08.029Z,4.15
2022-08-24T12:31:17.768Z,2.60
2022-08-24T12:36:36.111Z,3.13
2022-08-24T12:41:48.502Z,1.65
2022-08-24T12:46:54.334Z,1.55
2022-08-24T12:52:10.921Z,18.50
2022-08-24T12:57:31.510Z,7.95
2022-08-24T13:02:39.398Z,2.67
2022-08-24T13:07:53.064Z,4.32
2022-08-24T13:13:11.493Z,3.85
2022-08-24T13:18:13.134Z,2.15
2022-08-24T13:23:21.461Z,4.18
2022-08-24T13:28:23.169Z,3.17
2022-08-24T13:34:10.032Z,2.10
2022-08-24T13:39:46.990Z,1.10
2022-08-24T13:45:05.396Z,1.88
2022-08-24T13:50:30.309Z,3.25
2022-08-24T13:55:50.252Z,2.30
2022-08-24T14:01:02.703Z,2.40
2022-08-24T14:06:25.400Z,3.20
2022-08-24T14:11:57.394Z,1.45
2022-08-24T14:17:35.351Z,7.40
2022-08-24T14:22:41.600Z,4.97
2022-08-24T14:27:47.275Z,4.45
2022-08-24T14:33:00.966Z,3.90
2022-08-24T14:38:26.822Z,1.77
2022-08-24T14:43:52.939Z,2.70
2022-08-24T14:49:06.632Z,4.60
2022-08-24T14:54:39.237Z,3.53
2022-08-24T15:00:04.466Z,1.40
2022-08-24T15:05:26.646Z,1.58
2022-08-24T15:10:50.526Z,1.95
2022-08-24T15:16:14.748Z,1.65
2022-08-24T15:21:22.681Z,3.25
2022-08-24T15:26:52.099Z,3.40
2022-08-24T15:32:11.363Z,1.42
2022-08-24T15:37:26.873Z,1.30
2022-08-24T15:42:33.931Z,3.20
2022-08-24T15:47:39.376Z,1.52
2022-08-24T15:53:05.247Z,1.30
2022-08-24T15:58:35.310Z,2.75
2022-08-24T16:03:50.407Z,1.95
2022-08-24T16:09:04.416Z,2.20
2022-08-24T16:14:13.957Z,1.95
2022-08-24T16:19:35.298Z,2.67
2022-08-24T16:24:40.378Z,2.30
2022-08-24T16:29:44.759Z,1.52
2022-08-24T16:35:06.797Z,1.73
2022-08-24T16:40:09.454Z,2.05
2022-08-24T16:45:15.358Z,1.55
2022-08-24T16:50:19.483Z,3.30
2022-08-24T16:55:21.225Z,2.67
2022-08-24T17:00:23.128Z,5.13
2022-08-24T17:05:24.993Z,2.53
2022-08-24T17:10:27.548Z,2.08
2022-08-24T17:15:29.253Z,1.98
2022-08-24T17:20:31.981Z,1.58
2022-08-24T17:25:34.371Z,2.10
2022-08-24T17:30:36.560Z,3.53
2022-08-24T17:35:39.267Z,1.48
2022-08-24T17:40:41.068Z,1.73
2022-08-24T17:45:42.949Z,2.53
2022-08-24T17:50:44.780Z,2.25
2022-08-24T17:55:47.040Z,3.70
2022-08-24T18:00:48.773Z,2.53
2022-08-24T18:05:50.584Z,6.45
2022-08-24T18:10:52.422Z,1.75
2022-08-24T18:15:54.348Z,2.10
2022-08-24T18:20:56.181Z,2.60
2022-08-24T18:25:58.014Z,6.43
2022-08-24T18:31:00.039Z,2.00
2022-08-24T18:36:01.761Z,5.40
2022-08-24T18:41:03.878Z,2.25
2022-08-24T18:46:06.134Z,2.55
2022-08-24T18:51:08.004Z,4.50
2022-08-24T18:56:12.394Z,2.80
2022-08-24T19:01:14.805Z,3.00
2022-08-24T19:06:16.881Z,2.00
2022-08-24T19:11:22.978Z,3.63
2022-08-24T19:16:24.703Z,4.85
2022-08-24T19:21:31.176Z,2.40
2022-08-24T19:26:33.399Z,4.50
2022-08-24T19:31:35.376Z,3.15
2022-08-24T19:36:37.425Z,3.72
2022-08-24T19:41:44.762Z,5.25
2022-08-24T19:46:49.243Z,7.53
2022-08-24T19:51:51.477Z,5.30
2022-08-24T19:56:54.318Z,4.82
2022-08-24T20:01:56.059Z,3.95
2022-08-24T20:06:58.082Z,7.20
2022-08-24T20:11:59.826Z,5.15
2022-08-24T20:17:01.860Z,6.15
2022-08-24T20:22:13.294Z,18.05
2022-08-24T20:27:21.589Z,4.80
2022-08-24T20:32:23.316Z,8.10
2022-08-24T20:37:27.485Z,6.53
2022-08-24T20:42:31.687Z,7.20
2022-08-24T20:47:33.491Z,4.75
2022-08-24T20:52:35.212Z,3.22
2022-08-24T20:57:37.698Z,4.13
2022-08-24T21:02:39.810Z,4.15
2022-08-24T21:07:47.749Z,5.28
2022-08-24T21:12:51.169Z,5.95
2022-08-24T21:17:52.918Z,5.60
2022-08-24T21:22:54.749Z,9.40
2022-08-24T21:28:01.301Z,3.05
2022-08-24T21:33:24.634Z,6.70
2022-08-24T21:38:26.569Z,4.25
2022-08-24T21:43:29.539Z,5.38
2022-08-24T21:48:31.285Z,10.52
2022-08-24T21:53:33.022Z,6.68
2022-08-24T21:58:36.398Z,3.65
2022-08-24T22:03:39.953Z,7.30
2022-08-24T22:08:43.701Z,5.80
2022-08-24T22:13:45.900Z,6.78
2022-08-24T22:18:48.611Z,4.68
2022-08-24T22:23:50.443Z,11.20
2022-08-24T22:28:52.444Z,14.65
2022-08-24T22:33:57.045Z,17.30
2022-08-24T22:38:59.881Z,14.95
2022-08-24T22:44:20.829Z,9.55
2022-08-24T22:49:25.273Z,10.65
2022-08-24T22:54:27.712Z,5.50
2022-08-24T22:59:35.857Z,5.28
2022-08-24T23:04:40.973Z,4.55
2022-08-24T23:09:45.426Z,5.07
2022-08-24T23:14:50.401Z,5.05
2022-08-24T23:20:01.937Z,6.97
2022-08-24T23:25:05.735Z,6.88
2022-08-24T23:30:11.123Z,10.88
2022-08-24T23:35:13.108Z,5.75
2022-08-24T23:40:15.114Z,8.82
2022-08-24T23:45:17.093Z,18.30
2022-08-24T23:50:19.331Z,27.40
2022-08-24T23:55:22.252Z,7.97
